sensor_id;sensor_type;location;lat;lon;timestamp;temperature;humidity
13496;DHT22;6820;49.374;8.452;2023-06-22T00:00:07;25.27;99.99
13496;DHT22;6820;49.374;8.452;2023-06-22T00:04:13;25.23;99.99
13496;DHT22;6820;49.374;8.452;2023-06-22T00:08:15;25.19;99.99
13496;DHT22;6820;49.374;8.452;2023-06-22T00:12:17;25.09;99.99
13496;DHT22;6820;49.374;8.452;2023-06-22T00:16:19;25.02;99.99
13496;DHT22;6820;49.374;8.452;2023-06-22T00:20:21;24.92;99.99
13496;DHT22;6820;49.374;8.452;2023-06-22T00:24:24;24.79;99.99
13496;DHT22;6820;49.374;8.452;2023-06-22T00:28:25;24.70;99.99
13496;DHT22;6820;49.374;8.452;2023-06-22T00:32:28;24.59;99.99
13496;DHT22;6820;49.374;8.452;2023-06-22T00:36:29;24.45;99.99
13496;DHT22;6820;49.374;8.452;2023-06-22T00:40:31;24.09;99.99
13496;DHT22;6820;49.374;8.452;2023-06-22T00:44:34;24.02;99.99
13496;DHT22;6820;49.374;8.452;2023-06-22T00:48:37;24.11;99.99
13496;DHT22;6820;49.374;8.452;2023-06-22T00:52:41;23.82;99.99
13496;DHT22;6820;49.374;8.452;2023-06-22T00:56:44;23.59;99.99
13496;DHT22;6820;49.374;8.452;2023-06-22T01:00:47;23.29;99.99
13496;DHT22;6820;49.374;8.452;2023-06-22T01:04:49;23.22;99.99
13496;DHT22;6820;49.374;8.452;2023-06-22T01:08:57;23.09;99.99
13496;DHT22;6820;49.374;8.452;2023-06-22T01:13:15;23.12;99.99
13496;DHT22;6820;49.374;8.452;2023-06-22T01:17:23;23.23;99.99
13496;DHT22;6820;49.374;8.452;2023-06-22T01:21:28;23.41;99.99
13496;DHT22;6820;49.374;8.452;2023-06-22T01:26:17;23.53;99.99
13496;DHT22;6820;49.374;8.452;2023-06-22T01:29:58;23.60;99.99
13496;DHT22;6820;49.374;8.452;2023-06-22T01:34:03;23.69;99.99
13496;DHT22;6820;49.374;8.452;2023-06-22T01:38:07;23.71;99.99
13496;DHT22;6820;49.374;8.452;2023-06-22T01:42:09;23.69;99.99
13496;DHT22;6820;49.374;8.452;2023-06-22T01:46:14;23.69;99.99
13496;DHT22;6820;49.374;8.452;2023-06-22T01:50:16;23.67;99.99
13496;DHT22;6820;49.374;8.452;2023-06-22T01:54:18;23.64;99.99
13496;DHT22;6820;49.374;8.452;2023-06-22T01:58:21;23.63;99.99
13496;DHT22;6820;49.374;8.452;2023-06-22T02:02:33;23.64;99.99
13496;DHT22;6820;49.374;8.452;2023-06-22T02:06:45;23.63;99.99
13496;DHT22;6820;49.374;8.452;2023-06-22T02:10:49;23.57;99.99
13496;DHT22;6820;49.374;8.452;2023-06-22T02:14:56;23.62;99.99
13496;DHT22;6820;49.374;8.452;2023-06-22T02:18:58;23.62;99.99
13496;DHT22;6820;49.374;8.452;2023-06-22T02:23:07;23.57;99.99
13496;DHT22;6820;49.374;8.452;2023-06-22T02:27:09;23.54;99.99
13496;DHT22;6820;49.374;8.452;2023-06-22T02:31:11;23.54;99.99
13496;DHT22;6820;49.374;8.452;2023-06-22T02:35:13;23.54;99.99
13496;DHT22;6820;49.374;8.452;2023-06-22T02:39:14;23.56;99.99
13496;DHT22;6820;49.374;8.452;2023-06-22T02:43:18;23.53;99.99
13496;DHT22;6820;49.374;8.452;2023-06-22T02:47:19;23.53;99.99
13496;DHT22;6820;49.374;8.452;2023-06-22T02:51:21;23.49;99.99
13496;DHT22;6820;49.374;8.452;2023-06-22T02:55:24;23.42;99.99
13496;DHT22;6820;49.374;8.452;2023-06-22T02:59:31;23.41;99.99
13496;DHT22;6820;49.374;8.452;2023-06-22T03:03:41;23.37;99.99
13496;DHT22;6820;49.374;8.452;2023-06-22T03:07:43;23.35;99.99
13496;DHT22;6820;49.374;8.452;2023-06-22T03:11:46;23.34;99.99
13496;DHT22;6820;49.374;8.452;2023-06-22T03:15:49;23.34;99.99
13496;DHT22;6820;49.374;8.452;2023-06-22T03:19:50;23.31;99.99
13496;DHT22;6820;49.374;8.452;2023-06-22T03:23:52;23.26;99.99
13496;DHT22;6820;49.374;8.452;2023-06-22T03:27:54;23.26;99.99
13496;DHT22;6820;49.374;8.452;2023-06-22T03:31:57;23.26;99.99
13496;DHT22;6820;49.374;8.452;2023-06-22T03:35:58;23.31;99.99
13496;DHT22;6820;49.374;8.452;2023-06-22T03:40:00;23.23;99.99
13496;DHT22;6820;49.374;8.452;2023-06-22T03:44:03;23.22;99.99
13496;DHT22;6820;49.374;8.452;2023-06-22T03:48:05;23.21;99.99
13496;DHT22;6820;49.374;8.452;2023-06-22T03:52:07;23.21;99.99
13496;DHT22;6820;49.374;8.452;2023-06-22T03:56:09;23.22;99.99
13496;DHT22;6820;49.374;8.452;2023-06-22T04:00:10;23.19;99.99
13496;DHT22;6820;49.374;8.452;2023-06-22T04:04:13;23.21;99.99
13496;DHT22;6820;49.374;8.452;2023-06-22T04:08:15;23.25;99.99
13496;DHT22;6820;49.374;8.452;2023-06-22T04:12:17;23.22;99.99
13496;DHT22;6820;49.374;8.452;2023-06-22T04:16:19;23.21;99.99
13496;DHT22;6820;49.374;8.452;2023-06-22T04:20:20;23.23;99.99
13496;DHT22;6820;49.374;8.452;2023-06-22T04:24:22;23.22;99.99
13496;DHT22;6820;49.374;8.452;2023-06-22T04:28:24;23.22;99.99
13496;DHT22;6820;49.374;8.452;2023-06-22T04:32:28;23.29;99.99
13496;DHT22;6820;49.374;8.452;2023-06-22T04:36:30;23.32;99.99
13496;DHT22;6820;49.374;8.452;2023-06-22T04:40:38;23.32;99.99
13496;DHT22;6820;49.374;8.452;2023-06-22T04:44:42;23.35;99.99
13496;DHT22;6820;49.374;8.452;2023-06-22T04:48:44;23.31;99.99
13496;DHT22;6820;49.374;8.452;2023-06-22T04:52:45;23.34;99.99
13496;DHT22;6820;49.374;8.452;2023-06-22T04:56:47;23.38;99.99
13496;DHT22;6820;49.374;8.452;2023-06-22T05:00:49;23.39;99.99
13496;DHT22;6820;49.374;8.452;2023-06-22T05:04:53;23.44;99.99
13496;DHT22;6820;49.374;8.452;2023-06-22T05:08:58;23.47;99.99
13496;DHT22;6820;49.374;8.452;2023-06-22T05:13:00;23.50;99.99
13496;DHT22;6820;49.374;8.452;2023-06-22T05:17:01;23.54;99.99
13496;DHT22;6820;49.374;8.452;2023-06-22T05:21:05;23.57;99.99
13496;DHT22;6820;49.374;8.452;2023-06-22T05:25:08;23.68;99.99
13496;DHT22;6820;49.374;8.452;2023-06-22T05:29:11;23.75;99.99
13496;DHT22;6820;49.374;8.452;2023-06-22T05:33:13;23.77;99.99
13496;DHT22;6820;49.374;8.452;2023-06-22T05:37:14;23.87;99.99
13496;DHT22;6820;49.374;8.452;2023-06-22T05:41:16;23.93;99.99
13496;DHT22;6820;49.374;8.452;2023-06-22T05:45:18;23.97;99.99
13496;DHT22;6820;49.374;8.452;2023-06-22T05:49:19;24.06;99.99
13496;DHT22;6820;49.374;8.452;2023-06-22T05:53:23;24.12;99.99
13496;DHT22;6820;49.374;8.452;2023-06-22T05:57:25;24.18;99.99
13496;DHT22;6820;49.374;8.452;2023-06-22T06:01:26;24.26;99.99
13496;DHT22;6820;49.374;8.452;2023-06-22T06:05:35;24.37;99.99
13496;DHT22;6820;49.374;8.452;2023-06-22T06:09:37;24.45;99.99
13496;DHT22;6820;49.374;8.452;2023-06-22T06:13:39;24.56;99.99
13496;DHT22;6820;49.374;8.452;2023-06-22T06:17:47;24.63;99.99
13496;DHT22;6820;49.374;8.452;2023-06-22T06:21:49;24.75;99.99
13496;DHT22;6820;49.374;8.452;2023-06-22T06:25:51;24.86;99.99
13496;DHT22;6820;49.374;8.452;2023-06-22T06:29:53;24.94;99.99
13496;DHT22;6820;49.374;8.452;2023-06-22T06:33:55;25.05;99.99
13496;DHT22;6820;49.374;8.452;2023-06-22T06:37:56;25.09;99.99
13496;DHT22;6820;49.374;8.452;2023-06-22T06:41:58;25.17;99.99
13496;DHT22;6820;49.374;8.452;2023-06-22T06:45:59;25.27;99.99
13496;DHT22;6820;49.374;8.452;2023-06-22T06:50:02;25.35;99.99
13496;DHT22;6820;49.374;8.452;2023-06-22T06:54:05;25.38;99.99
13496;DHT22;6820;49.374;8.452;2023-06-22T06:58:07;25.51;99.99
13496;DHT22;6820;49.374;8.452;2023-06-22T07:02:11;25.63;99.99
13496;DHT22;6820;49.374;8.452;2023-06-22T07:06:13;25.75;99.99
13496;DHT22;6820;49.374;8.452;2023-06-22T07:10:15;25.85;99.99
13496;DHT22;6820;49.374;8.452;2023-06-22T07:14:17;26.00;99.99
13496;DHT22;6820;49.374;8.452;2023-06-22T07:18:18;26.11;99.99
13496;DHT22;6820;49.374;8.452;2023-06-22T07:22:20;26.20;99.99
13496;DHT22;6820;49.374;8.452;2023-06-22T07:26:21;26.21;99.99
13496;DHT22;6820;49.374;8.452;2023-06-22T07:30:23;26.34;99.99
13496;DHT22;6820;49.374;8.452;2023-06-22T07:34:25;26.39;99.99
13496;DHT22;6820;49.374;8.452;2023-06-22T07:38:26;26.47;99.99
13496;DHT22;6820;49.374;8.452;2023-06-22T07:42:28;26.50;99.99
13496;DHT22;6820;49.374;8.452;2023-06-22T07:46:34;26.57;99.99
13496;DHT22;6820;49.374;8.452;2023-06-22T07:50:36;26.72;99.99
13496;DHT22;6820;49.374;8.452;2023-06-22T07:54:37;26.84;99.99
13496;DHT22;6820;49.374;8.452;2023-06-22T07:58:39;26.91;99.99
13496;DHT22;6820;49.374;8.452;2023-06-22T08:02:41;26.98;99.99
13496;DHT22;6820;49.374;8.452;2023-06-22T08:06:44;27.02;99.99
13496;DHT22;6820;49.374;8.452;2023-06-22T08:10:45;27.16;99.99
13496;DHT22;6820;49.374;8.452;2023-06-22T08:14:47;27.34;99.99
13496;DHT22;6820;49.374;8.452;2023-06-22T08:18:49;27.46;99.99
13496;DHT22;6820;49.374;8.452;2023-06-22T08:22:50;27.59;99.99
13496;DHT22;6820;49.374;8.452;2023-06-22T08:26:52;27.72;99.99
13496;DHT22;6820;49.374;8.452;2023-06-22T08:30:54;27.76;99.99
13496;DHT22;6820;49.374;8.452;2023-06-22T08:34:57;27.86;99.99
13496;DHT22;6820;49.374;8.452;2023-06-22T08:38:58;27.88;99.99
13496;DHT22;6820;49.374;8.452;2023-06-22T08:43:02;28.03;99.99
13496;DHT22;6820;49.374;8.452;2023-06-22T08:47:04;28.15;99.99
13496;DHT22;6820;49.374;8.452;2023-06-22T08:51:06;28.28;99.99
13496;DHT22;6820;49.374;8.452;2023-06-22T08:55:07;28.43;99.99
13496;DHT22;6820;49.374;8.452;2023-06-22T08:59:10;28.62;99.99
13496;DHT22;6820;49.374;8.452;2023-06-22T09:03:12;28.76;99.99
13496;DHT22;6820;49.374;8.452;2023-06-22T09:07:14;28.89;99.99
13496;DHT22;6820;49.374;8.452;2023-06-22T09:11:15;29.10;99.99
13496;DHT22;6820;49.374;8.452;2023-06-22T09:15:17;29.23;99.99
13496;DHT22;6820;49.374;8.452;2023-06-22T09:19:19;29.33;99.99
13496;DHT22;6820;49.374;8.452;2023-06-22T09:23:21;29.37;99.99
13496;DHT22;6820;49.374;8.452;2023-06-22T09:27:22;29.36;99.99
13496;DHT22;6820;49.374;8.452;2023-06-22T09:31:24;29.35;99.99
13496;DHT22;6820;49.374;8.452;2023-06-22T09:35:29;29.35;99.99
13496;DHT22;6820;49.374;8.452;2023-06-22T09:39:30;29.41;99.99
13496;DHT22;6820;49.374;8.452;2023-06-22T09:43:32;29.32;99.99
13496;DHT22;6820;49.374;8.452;2023-06-22T09:47:36;29.42;99.99
13496;DHT22;6820;49.374;8.452;2023-06-22T09:51:38;29.55;99.99
13496;DHT22;6820;49.374;8.452;2023-06-22T09:55:40;29.73;99.99
13496;DHT22;6820;49.374;8.452;2023-06-22T09:59:41;29.89;99.99
13496;DHT22;6820;49.374;8.452;2023-06-22T10:03:43;29.86;99.99
13496;DHT22;6820;49.374;8.452;2023-06-22T10:07:45;29.89;99.99
13496;DHT22;6820;49.374;8.452;2023-06-22T10:11:47;29.84;99.99
13496;DHT22;6820;49.374;8.452;2023-06-22T10:15:49;29.86;99.99
13496;DHT22;6820;49.374;8.452;2023-06-22T10:19:52;30.10;99.99
13496;DHT22;6820;49.374;8.452;2023-06-22T10:23:54;30.36;99.99
13496;DHT22;6820;49.374;8.452;2023-06-22T10:27:56;30.42;99.99
13496;DHT22;6820;49.374;8.452;2023-06-22T10:31:58;30.36;99.99
13496;DHT22;6820;49.374;8.452;2023-06-22T10:36:00;30.42;99.99
13496;DHT22;6820;49.374;8.452;2023-06-22T10:40:02;30.42;99.99
13496;DHT22;6820;49.374;8.452;2023-06-22T10:44:05;30.61;99.99
13496;DHT22;6820;49.374;8.452;2023-06-22T10:48:07;30.82;99.99
13496;DHT22;6820;49.374;8.452;2023-06-22T10:52:09;31.03;99.99
13496;DHT22;6820;49.374;8.452;2023-06-22T10:56:10;31.19;99.99
13496;DHT22;6820;49.374;8.452;2023-06-22T11:00:13;31.23;99.99
13496;DHT22;6820;49.374;8.452;2023-06-22T11:04:17;31.42;99.99
13496;DHT22;6820;49.374;8.452;2023-06-22T11:08:19;31.78;99.99
13496;DHT22;6820;49.374;8.452;2023-06-22T11:12:20;31.97;99.99
13496;DHT22;6820;49.374;8.452;2023-06-22T11:16:22;31.92;99.99
13496;DHT22;6820;49.374;8.452;2023-06-22T11:20:23;31.97;99.99
13496;DHT22;6820;49.374;8.452;2023-06-22T11:24:25;32.07;99.99
13496;DHT22;6820;49.374;8.452;2023-06-22T11:28:27;31.95;99.99
13496;DHT22;6820;49.374;8.452;2023-06-22T11:32:29;31.98;99.99
13496;DHT22;6820;49.374;8.452;2023-06-22T11:36:31;32.05;99.99
13496;DHT22;6820;49.374;8.452;2023-06-22T11:40:36;32.12;99.99
13496;DHT22;6820;49.374;8.452;2023-06-22T11:44:38;32.13;99.99
13496;DHT22;6820;49.374;8.452;2023-06-22T11:48:40;32.17;99.99
13496;DHT22;6820;49.374;8.452;2023-06-22T11:52:41;32.22;99.99
13496;DHT22;6820;49.374;8.452;2023-06-22T11:56:43;32.27;99.99
13496;DHT22;6820;49.374;8.452;2023-06-22T12:00:44;32.35;99.99
13496;DHT22;6820;49.374;8.452;2023-06-22T12:04:52;32.66;99.99
13496;DHT22;6820;49.374;8.452;2023-06-22T12:08:53;32.96;99.99
13496;DHT22;6820;49.374;8.452;2023-06-22T12:12:55;33.12;99.99
13496;DHT22;6820;49.374;8.452;2023-06-22T12:16:58;33.26;99.99
13496;DHT22;6820;49.374;8.452;2023-06-22T12:21:00;33.55;99.99
13496;DHT22;6820;49.374;8.452;2023-06-22T12:25:02;33.50;99.99
13496;DHT22;6820;49.374;8.452;2023-06-22T12:29:03;33.47;99.99
13496;DHT22;6820;49.374;8.452;2023-06-22T12:33:05;33.68;99.99
13496;DHT22;6820;49.374;8.452;2023-06-22T12:37:07;33.86;99.99
13496;DHT22;6820;49.374;8.452;2023-06-22T12:41:08;33.93;99.99
13496;DHT22;6820;49.374;8.452;2023-06-22T12:45:10;33.79;99.99
13496;DHT22;6820;49.374;8.452;2023-06-22T12:49:12;33.72;99.99
13496;DHT22;6820;49.374;8.452;2023-06-22T12:53:14;33.65;99.99
13496;DHT22;6820;49.374;8.452;2023-06-22T12:57:15;33.68;99.99
13496;DHT22;6820;49.374;8.452;2023-06-22T13:01:18;33.62;99.99
13496;DHT22;6820;49.374;8.452;2023-06-22T13:05:20;33.94;99.99
13496;DHT22;6820;49.374;8.452;2023-06-22T13:09:22;34.23;99.99
13496;DHT22;6820;49.374;8.452;2023-06-22T13:13:23;34.18;99.99
13496;DHT22;6820;49.374;8.452;2023-06-22T13:17:28;34.42;99.99
13496;DHT22;6820;49.374;8.452;2023-06-22T13:21:30;34.72;99.99
13496;DHT22;6820;49.374;8.452;2023-06-22T13:25:32;34.90;99.99
13496;DHT22;6820;49.374;8.452;2023-06-22T13:29:34;34.45;99.99
13496;DHT22;6820;49.374;8.452;2023-06-22T13:33:35;34.01;99.99
13496;DHT22;6820;49.374;8.452;2023-06-22T13:37:39;33.68;99.99
13496;DHT22;6820;49.374;8.452;2023-06-22T13:41:41;33.82;99.99
13496;DHT22;6820;49.374;8.452;2023-06-22T13:45:45;34.05;99.99
13496;DHT22;6820;49.374;8.452;2023-06-22T13:49:46;33.77;99.99
13496;DHT22;6820;49.374;8.452;2023-06-22T13:53:48;33.26;99.99
13496;DHT22;6820;49.374;8.452;2023-06-22T13:57:50;32.84;99.99
13496;DHT22;6820;49.374;8.452;2023-06-22T14:01:52;32.54;99.99
13496;DHT22;6820;49.374;8.452;2023-06-22T14:05:54;32.31;99.99
13496;DHT22;6820;49.374;8.452;2023-06-22T14:09:57;32.13;99.99
13496;DHT22;6820;49.374;8.452;2023-06-22T14:13:59;31.87;99.99
13496;DHT22;6820;49.374;8.452;2023-06-22T14:18:01;31.71;99.99
13496;DHT22;6820;49.374;8.452;2023-06-22T14:22:03;31.60;99.99
13496;DHT22;6820;49.374;8.452;2023-06-22T14:26:04;31.64;99.99
13496;DHT22;6820;49.374;8.452;2023-06-22T14:30:06;31.69;99.99
13496;DHT22;6820;49.374;8.452;2023-06-22T14:34:08;31.72;99.99
13496;DHT22;6820;49.374;8.452;2023-06-22T14:38:10;31.65;99.99
13496;DHT22;6820;49.374;8.452;2023-06-22T14:42:12;31.57;99.99
13496;DHT22;6820;49.374;8.452;2023-06-22T14:46:19;31.49;99.99
13496;DHT22;6820;49.374;8.452;2023-06-22T14:50:21;31.38;99.99
13496;DHT22;6820;49.374;8.452;2023-06-22T14:54:23;31.34;99.99
13496;DHT22;6820;49.374;8.452;2023-06-22T14:58:25;31.27;99.99
13496;DHT22;6820;49.374;8.452;2023-06-22T15:02:26;31.32;99.99
13496;DHT22;6820;49.374;8.452;2023-06-22T15:06:28;31.45;99.99
13496;DHT22;6820;49.374;8.452;2023-06-22T15:10:30;31.84;99.99
13496;DHT22;6820;49.374;8.452;2023-06-22T15:14:32;32.36;99.99
13496;DHT22;6820;49.374;8.452;2023-06-22T15:18:34;32.98;99.99
13496;DHT22;6820;49.374;8.452;2023-06-22T15:22:37;33.44;99.99
13496;DHT22;6820;49.374;8.452;2023-06-22T15:26:39;34.00;99.99
13496;DHT22;6820;49.374;8.452;2023-06-22T15:30:40;34.34;99.99
13496;DHT22;6820;49.374;8.452;2023-06-22T15:34:42;34.36;99.99
13496;DHT22;6820;49.374;8.452;2023-06-22T15:38:44;34.50;99.99
13496;DHT22;6820;49.374;8.452;2023-06-22T15:42:45;35.10;99.99
13496;DHT22;6820;49.374;8.452;2023-06-22T15:46:52;35.06;99.99
13496;DHT22;6820;49.374;8.452;2023-06-22T15:50:54;35.27;99.99
13496;DHT22;6820;49.374;8.452;2023-06-22T15:54:55;35.32;99.51
13496;DHT22;6820;49.374;8.452;2023-06-22T15:58:59;35.32;99.41
13496;DHT22;6820;49.374;8.452;2023-06-22T16:03:01;35.34;99.80
13496;DHT22;6820;49.374;8.452;2023-06-22T16:07:03;35.37;99.99
13496;DHT22;6820;49.374;8.452;2023-06-22T16:11:05;34.36;99.99
13496;DHT22;6820;49.374;8.452;2023-06-22T16:15:07;33.53;99.99
13496;DHT22;6820;49.374;8.452;2023-06-22T16:19:09;32.95;99.99
13496;DHT22;6820;49.374;8.452;2023-06-22T16:23:10;32.53;99.99
13496;DHT22;6820;49.374;8.452;2023-06-22T16:27:12;32.28;99.99
13496;DHT22;6820;49.374;8.452;2023-06-22T16:31:14;32.06;99.99
13496;DHT22;6820;49.374;8.452;2023-06-22T16:35:16;31.82;99.99
13496;DHT22;6820;49.374;8.452;2023-06-22T16:39:18;31.75;99.99
13496;DHT22;6820;49.374;8.452;2023-06-22T16:43:20;31.69;99.99
13496;DHT22;6820;49.374;8.452;2023-06-22T16:47:22;31.72;99.99
13496;DHT22;6820;49.374;8.452;2023-06-22T16:51:24;32.22;99.99
13496;DHT22;6820;49.374;8.452;2023-06-22T16:55:26;32.87;99.99
13496;DHT22;6820;49.374;8.452;2023-06-22T16:59:31;33.40;99.99
13496;DHT22;6820;49.374;8.452;2023-06-22T17:03:33;32.99;99.99
13496;DHT22;6820;49.374;8.452;2023-06-22T17:07:35;32.39;99.99
13496;DHT22;6820;49.374;8.452;2023-06-22T17:11:38;31.87;99.99
13496;DHT22;6820;49.374;8.452;2023-06-22T17:15:41;31.56;99.99
13496;DHT22;6820;49.374;8.452;2023-06-22T17:19:44;31.57;99.99
13496;DHT22;6820;49.374;8.452;2023-06-22T17:23:47;31.42;99.99
13496;DHT22;6820;49.374;8.452;2023-06-22T17:27:49;31.25;99.99
13496;DHT22;6820;49.374;8.452;2023-06-22T17:31:52;31.12;99.99
13496;DHT22;6820;49.374;8.452;2023-06-22T17:35:56;31.01;99.99
13496;DHT22;6820;49.374;8.452;2023-06-22T17:39:59;30.83;99.99
13496;DHT22;6820;49.374;8.452;2023-06-22T17:44:01;30.73;99.99
13496;DHT22;6820;49.374;8.452;2023-06-22T17:48:05;30.73;99.99
13496;DHT22;6820;49.374;8.452;2023-06-22T17:52:16;30.61;99.99
13496;DHT22;6820;49.374;8.452;2023-06-22T17:56:20;30.66;99.99
13496;DHT22;6820;49.374;8.452;2023-06-22T18:00:22;30.57;99.99
13496;DHT22;6820;49.374;8.452;2023-06-22T18:04:24;30.54;99.99
13496;DHT22;6820;49.374;8.452;2023-06-22T18:08:27;30.57;99.99
13496;DHT22;6820;49.374;8.452;2023-06-22T18:12:29;30.53;99.99
13496;DHT22;6820;49.374;8.452;2023-06-22T18:16:31;30.45;99.99
13496;DHT22;6820;49.374;8.452;2023-06-22T18:20:35;30.38;99.99
13496;DHT22;6820;49.374;8.452;2023-06-22T18:24:37;30.25;99.99
13496;DHT22;6820;49.374;8.452;2023-06-22T18:28:43;30.19;99.99
13496;DHT22;6820;49.374;8.452;2023-06-22T18:32:46;30.07;99.99
13496;DHT22;6820;49.374;8.452;2023-06-22T18:36:50;30.01;99.99
13496;DHT22;6820;49.374;8.452;2023-06-22T18:40:54;29.92;99.99
13496;DHT22;6820;49.374;8.452;2023-06-22T18:44:56;29.94;99.99
13496;DHT22;6820;49.374;8.452;2023-06-22T18:53:14;29.71;99.99
13496;DHT22;6820;49.374;8.452;2023-06-22T18:57:24;29.58;99.99
13496;DHT22;6820;49.374;8.452;2023-06-22T19:01:27;29.49;99.99
13496;DHT22;6820;49.374;8.452;2023-06-22T19:05:44;29.49;99.99
13496;DHT22;6820;49.374;8.452;2023-06-22T19:10:20;29.39;99.99
13496;DHT22;6820;49.374;8.452;2023-06-22T19:14:25;29.21;99.99
13496;DHT22;6820;49.374;8.452;2023-06-22T19:18:34;29.12;99.99
13496;DHT22;6820;49.374;8.452;2023-06-22T19:22:53;28.94;99.99
13496;DHT22;6820;49.374;8.452;2023-06-22T19:26:57;28.82;99.99
13496;DHT22;6820;49.374;8.452;2023-06-22T19:31:00;28.62;99.99
13496;DHT22;6820;49.374;8.452;2023-06-22T19:35:03;28.48;99.99
13496;DHT22;6820;49.374;8.452;2023-06-22T19:39:06;28.30;99.99
13496;DHT22;6820;49.374;8.452;2023-06-22T19:43:08;28.15;99.99
13496;DHT22;6820;49.374;8.452;2023-06-22T19:47:09;28.05;99.99
13496;DHT22;6820;49.374;8.452;2023-06-22T19:51:11;27.95;99.99
13496;DHT22;6820;49.374;8.452;2023-06-22T19:55:13;27.90;99.99
13496;DHT22;6820;49.374;8.452;2023-06-22T19:59:15;27.80;99.99
13496;DHT22;6820;49.374;8.452;2023-06-22T20:03:21;27.77;99.99
13496;DHT22;6820;49.374;8.452;2023-06-22T20:07:33;27.61;99.99
13496;DHT22;6820;49.374;8.452;2023-06-22T20:11:44;27.48;99.99
13496;DHT22;6820;49.374;8.452;2023-06-22T20:15:46;27.27;99.99
13496;DHT22;6820;49.374;8.452;2023-06-22T20:19:52;27.03;99.99
13496;DHT22;6820;49.374;8.452;2023-06-22T20:23:54;26.78;99.99
13496;DHT22;6820;49.374;8.452;2023-06-22T20:27:57;26.44;99.99
13496;DHT22;6820;49.374;8.452;2023-06-22T20:32:24;26.32;99.99
13496;DHT22;6820;49.374;8.452;2023-06-22T20:36:26;26.35;99.99
13496;DHT22;6820;49.374;8.452;2023-06-22T20:40:28;26.20;99.99
13496;DHT22;6820;49.374;8.452;2023-06-22T20:44:30;26.19;99.99
13496;DHT22;6820;49.374;8.452;2023-06-22T20:48:31;26.09;99.99
13496;DHT22;6820;49.374;8.452;2023-06-22T20:52:40;26.03;99.99
13496;DHT22;6820;49.374;8.452;2023-06-22T20:56:43;25.93;99.99
13496;DHT22;6820;49.374;8.452;2023-06-22T21:00:46;25.89;99.99
13496;DHT22;6820;49.374;8.452;2023-06-22T21:04:48;25.97;99.99
13496;DHT22;6820;49.374;8.452;2023-06-22T21:08:50;25.89;99.99
13496;DHT22;6820;49.374;8.452;2023-06-22T21:12:52;25.83;99.99
13496;DHT22;6820;49.374;8.452;2023-06-22T21:16:53;25.83;99.99
13496;DHT22;6820;49.374;8.452;2023-06-22T21:20:55;25.67;99.99
13496;DHT22;6820;49.374;8.452;2023-06-22T21:29:12;25.54;99.99
13496;DHT22;6820;49.374;8.452;2023-06-22T21:33:13;25.44;99.99
13496;DHT22;6820;49.374;8.452;2023-06-22T21:37:15;25.39;99.99
13496;DHT22;6820;49.374;8.452;2023-06-22T21:41:16;25.29;99.99
13496;DHT22;6820;49.374;8.452;2023-06-22T21:45:18;25.34;99.99
13496;DHT22;6820;49.374;8.452;2023-06-22T21:49:20;25.24;99.99
13496;DHT22;6820;49.374;8.452;2023-06-22T21:53:21;25.14;99.99
13496;DHT22;6820;49.374;8.452;2023-06-22T21:57:23;25.16;99.99
13496;DHT22;6820;49.374;8.452;2023-06-22T22:01:28;25.14;99.99
13496;DHT22;6820;49.374;8.452;2023-06-22T22:05:29;25.09;99.99
13496;DHT22;6820;49.374;8.452;2023-06-22T22:09:33;25.09;99.99
13496;DHT22;6820;49.374;8.452;2023-06-22T22:13:34;24.99;99.99
13496;DHT22;6820;49.374;8.452;2023-06-22T22:17:38;24.89;99.99
13496;DHT22;6820;49.374;8.452;2023-06-22T22:21:39;24.77;99.99
13496;DHT22;6820;49.374;8.452;2023-06-22T22:25:41;24.68;99.99
13496;DHT22;6820;49.374;8.452;2023-06-22T22:29:42;24.53;99.99
13496;DHT22;6820;49.374;8.452;2023-06-22T22:33:45;24.44;99.99
13496;DHT22;6820;49.374;8.452;2023-06-22T22:37:47;24.46;99.99
13496;DHT22;6820;49.374;8.452;2023-06-22T22:41:49;24.45;99.99
13496;DHT22;6820;49.374;8.452;2023-06-22T22:45:51;24.51;99.99
13496;DHT22;6820;49.374;8.452;2023-06-22T22:49:52;24.44;99.99
13496;DHT22;6820;49.374;8.452;2023-06-22T22:53:54;24.42;99.99
13496;DHT22;6820;49.374;8.452;2023-06-22T22:57:56;24.33;99.99
13496;DHT22;6820;49.374;8.452;2023-06-22T23:01:58;24.29;99.99
13496;DHT22;6820;49.374;8.452;2023-06-22T23:05:59;24.26;99.99
13496;DHT22;6820;49.374;8.452;2023-06-22T23:10:01;24.27;99.99
13496;DHT22;6820;49.374;8.452;2023-06-22T23:14:03;24.18;99.99
13496;DHT22;6820;49.374;8.452;2023-06-22T23:18:04;24.18;99.99
13496;DHT22;6820;49.374;8.452;2023-06-22T23:22:12;24.11;99.99
13496;DHT22;6820;49.374;8.452;2023-06-22T23:26:13;24.12;99.99
13496;DHT22;6820;49.374;8.452;2023-06-22T23:30:19;24.02;99.99
13496;DHT22;6820;49.374;8.452;2023-06-22T23:34:20;23.79;99.99
13496;DHT22;6820;49.374;8.452;2023-06-22T23:38:22;23.89;99.99
13496;DHT22;6820;49.374;8.452;2023-06-22T23:42:24;23.79;99.99
13496;DHT22;6820;49.374;8.452;2023-06-22T23:46:26;23.75;99.99
13496;DHT22;6820;49.374;8.452;2023-06-22T23:50:32;23.63;99.99
13496;DHT22;6820;49.374;8.452;2023-06-22T23:54:34;23.47;99.99
13496;DHT22;6820;49.374;8.452;2023-06-22T23:58:35;23.37;99.99
